Time;durP1;ratioP1;P1;durP2;ratioP2;P2;SDS_P1;SDS_P2;PMS_P1;PMS_P2;Temp;Humidity;BMP_temperature;BMP_pressure;BME280_temperature;BME280_humidity;BME280_pressure;Samples;Min_cycle;Max_cycle;Signal;HPM_P1;HPM_P2
2022/02/21 00:00:00;;;;;;;3.00;0.70;;;11.50;99.90;;;;;;4997789;28;20492;-78
2022/02/21 00:02:26;;;;;;;2.80;0.65;;;11.50;99.90;;;;;;4993726;28;20046;-78
2022/02/21 00:04:51;;;;;;;2.15;0.55;;;11.50;99.90;;;;;;4996033;28;20126;-77
2022/02/21 00:07:17;;;;;;;1.35;0.65;;;11.50;99.90;;;;;;4977268;28;20034;-77
2022/02/21 00:09:42;;;;;;;1.20;0.43;;;11.50;99.90;;;;;;4994866;28;20044;-77
2022/02/21 00:12:09;;;;;;;2.15;0.60;;;11.60;99.90;;;;;;4995579;28;20137;-77
2022/02/21 00:14:36;;;;;;;1.38;0.32;;;11.60;99.90;;;;;;4980092;28;20038;-76
2022/02/21 00:17:02;;;;;;;1.08;0.38;;;11.20;99.90;;;;;;4996951;28;20342;-77
2022/02/21 00:19:28;;;;;;;3.03;0.28;;;10.60;99.90;;;;;;4996030;28;20037;-77
2022/02/21 00:21:53;;;;;;;0.40;0.20;;;10.20;99.90;;;;;;4995899;28;20023;-77
2022/02/21 00:24:19;;;;;;;1.95;0.30;;;10.10;99.90;;;;;;4997786;28;20026;-78
2022/02/21 00:26:44;;;;;;;1.58;0.32;;;9.90;99.90;;;;;;4980924;28;20255;-80
2022/02/21 00:29:11;;;;;;;0.65;0.20;;;9.70;99.90;;;;;;4995928;28;20030;-78
2022/02/21 00:31:37;;;;;;;0.70;0.22;;;9.50;99.90;;;;;;4994238;28;20030;-77
2022/02/21 00:34:03;;;;;;;3.97;0.30;;;9.50;99.90;;;;;;4993178;28;20054;-78
2022/02/21 00:36:28;;;;;;;3.53;0.32;;;9.50;99.90;;;;;;4978341;28;20413;-78
2022/02/21 00:38:54;;;;;;;1.50;0.40;;;9.40;99.90;;;;;;4996520;28;20461;-78
2022/02/21 00:41:19;;;;;;;1.75;0.28;;;9.20;99.90;;;;;;4995025;28;20034;-77
2022/02/21 00:43:45;;;;;;;0.65;0.10;;;9.00;99.90;;;;;;4995062;28;20479;-78
2022/02/21 00:46:10;;;;;;;4.32;0.40;;;9.10;99.90;;;;;;4994488;28;20349;-78
2022/02/21 00:48:36;;;;;;;0.98;0.30;;;9.00;99.90;;;;;;4993598;28;20049;-77
2022/02/21 00:51:02;;;;;;;1.02;0.30;;;8.90;99.90;;;;;;4994177;28;20096;-77
2022/02/21 00:53:28;;;;;;;1.40;0.32;;;8.80;99.90;;;;;;4976010;28;20030;-77
2022/02/21 00:55:53;;;;;;;2.20;0.20;;;8.90;99.90;;;;;;4993175;28;20031;-77
2022/02/21 00:58:19;;;;;;;2.03;0.32;;;8.90;99.90;;;;;;4993258;28;20107;-77
2022/02/21 01:00:44;;;;;;;0.73;0.22;;;8.70;99.90;;;;;;4993186;28;20053;-79
2022/02/21 01:03:10;;;;;;;0.95;0.30;;;8.70;99.90;;;;;;4993554;28;20631;-77
2022/02/21 01:05:40;;;;;;;0.40;0.20;;;8.80;99.90;;;;;;4993529;28;20073;-78
2022/02/21 01:08:08;;;;;;;0.63;0.20;;;8.80;99.90;;;;;;4993430;28;20038;-76
2022/02/21 01:10:34;;;;;;;3.63;0.40;;;8.80;99.90;;;;;;4992915;28;20030;-78
2022/02/21 01:13:00;;;;;;;2.22;0.30;;;8.80;99.90;;;;;;4975114;28;20113;-77
2022/02/21 01:15:25;;;;;;;3.13;0.45;;;8.80;99.90;;;;;;4993173;28;20241;-76
2022/02/21 01:17:51;;;;;;;1.02;0.22;;;8.80;99.90;;;;;;4992591;28;20050;-76
2022/02/21 01:20:17;;;;;;;1.35;0.22;;;8.80;99.90;;;;;;4992620;28;20031;-77
2022/02/21 01:22:43;;;;;;;2.33;0.30;;;8.80;99.90;;;;;;4992602;28;20030;-78
2022/02/21 01:25:09;;;;;;;1.55;0.50;;;8.80;99.90;;;;;;4992600;28;20479;-78
2022/02/21 01:27:35;;;;;;;1.95;0.57;;;8.80;99.90;;;;;;4992862;28;20038;-77
2022/02/21 01:30:04;;;;;;;1.42;0.40;;;8.80;99.90;;;;;;4993811;28;20435;-77
2022/02/21 01:32:29;;;;;;;1.45;0.30;;;8.80;99.90;;;;;;4992904;28;20034;-79
2022/02/21 01:34:55;;;;;;;1.35;0.35;;;8.80;99.90;;;;;;4992508;28;20460;-78
2022/02/21 01:37:20;;;;;;;0.70;0.15;;;8.80;99.90;;;;;;4992569;28;20050;-76
2022/02/21 01:39:46;;;;;;;1.00;0.45;;;8.80;99.90;;;;;;4992355;28;20037;-78
2022/02/21 01:42:11;;;;;;;3.30;0.40;;;8.80;99.90;;;;;;4992838;28;20021;-78
2022/02/21 01:44:48;;;;;;;1.02;0.40;;;8.80;99.90;;;;;;4974816;28;20475;-78
2022/02/21 01:47:19;;;;;;;3.05;0.40;;;8.80;99.90;;;;;;4992175;28;20503;-79
2022/02/21 01:49:45;;;;;;;2.60;1.05;;;8.70;99.90;;;;;;4992007;28;20034;-81
2022/02/21 01:52:12;;;;;;;2.13;0.65;;;8.80;99.90;;;;;;4991968;28;20045;-77
2022/02/21 01:54:38;;;;;;;3.08;0.70;;;8.80;99.90;;;;;;4993916;28;20034;-79
2022/02/21 01:57:05;;;;;;;0.95;0.50;;;8.80;99.90;;;;;;4993761;28;20034;-78
2022/02/21 01:59:34;;;;;;;1.40;0.43;;;8.80;99.90;;;;;;4993169;28;20038;-78
2022/02/21 02:02:00;;;;;;;1.20;0.32;;;8.70;99.90;;;;;;4992916;28;20523;-78
2022/02/21 02:04:26;;;;;;;0.90;0.17;;;8.70;99.90;;;;;;4992418;28;20058;-77
2022/02/21 02:06:52;;;;;;;3.60;0.60;;;8.70;99.90;;;;;;4991610;28;20502;-77
2022/02/21 02:09:17;;;;;;;2.45;0.40;;;8.60;99.90;;;;;;4977358;28;20518;-78
2022/02/21 02:11:44;;;;;;;1.50;0.38;;;8.60;99.90;;;;;;4994751;28;20030;-77
2022/02/21 02:14:26;;;;;;;0.73;0.20;;;8.60;99.90;;;;;;4993204;28;20026;-77
2022/02/21 02:16:52;;;;;;;4.00;0.50;;;8.60;99.90;;;;;;4994624;28;20057;-78
2022/02/21 02:19:17;;;;;;;2.13;0.25;;;8.40;99.90;;;;;;4996171;28;20629;-77
2022/02/21 02:21:44;;;;;;;2.58;0.80;;;7.80;99.90;;;;;;4976957;28;20034;-77
2022/02/21 02:24:09;;;;;;;2.95;0.40;;;7.70;99.90;;;;;;4992014;28;20038;-77
2022/02/21 02:26:39;;;;;;;1.55;0.50;;;7.70;99.90;;;;;;4992459;28;20030;-78
2022/02/21 02:29:04;;;;;;;5.00;0.50;;;7.70;99.90;;;;;;4992065;28;20033;-78
2022/02/21 02:31:30;;;;;;;6.40;1.85;;;7.70;99.90;;;;;;4975374;28;20018;-77
2022/02/21 02:33:55;;;;;;;11.13;1.00;;;7.70;99.90;;;;;;4992121;28;20161;-77
2022/02/21 02:36:21;;;;;;;5.97;1.20;;;7.70;99.90;;;;;;5017179;28;20463;-77
2022/02/21 02:38:46;;;;;;;6.85;0.90;;;7.70;99.90;;;;;;5032121;28;20359;-77
2022/02/21 02:41:13;;;;;;;5.20;0.75;;;7.70;99.90;;;;;;5032435;28;20026;-76
2022/02/21 02:43:40;;;;;;;5.00;1.13;;;7.60;99.90;;;;;;5032226;28;20100;-76
2022/02/21 02:46:06;;;;;;;4.22;0.50;;;7.60;99.90;;;;;;5034252;28;20040;-77
2022/02/21 02:48:32;;;;;;;1.10;0.50;;;7.50;99.90;;;;;;5032520;28;20355;-76
2022/02/21 02:50:58;;;;;;;10.65;0.90;;;7.50;99.90;;;;;;5032689;28;20026;-77
2022/02/21 02:53:24;;;;;;;4.72;1.15;;;7.50;99.90;;;;;;5014622;28;20030;-78
2022/02/21 02:55:49;;;;;;;12.15;1.48;;;7.40;99.90;;;;;;5030973;28;20036;-76
2022/02/21 02:58:15;;;;;;;14.25;1.75;;;7.50;99.90;;;;;;5031538;28;20049;-77
2022/02/21 03:00:40;;;;;;;8.23;1.48;;;7.40;99.80;;;;;;5030797;28;20537;-76
2022/02/21 03:03:06;;;;;;;10.02;0.95;;;7.40;99.70;;;;;;5033170;28;20025;-77
2022/02/21 03:05:32;;;;;;;1.55;0.30;;;7.30;99.50;;;;;;5032831;28;20175;-75
2022/02/21 03:07:57;;;;;;;4.90;1.02;;;7.00;99.90;;;;;;5032288;28;20113;-76
2022/02/21 03:10:23;;;;;;;2.83;0.30;;;6.80;99.90;;;;;;5031796;28;20045;-76
2022/02/21 03:12:49;;;;;;;4.28;0.75;;;6.70;99.90;;;;;;5032915;28;20026;-75
2022/02/21 03:21:59;;;;;;;2.70;0.57;;;6.60;99.90;;;;;;4991836;28;20181;-78
2022/02/21 03:27:46;;;;;;;11.02;1.40;;;6.50;99.90;;;;;;5025509;28;20048;-77
2022/02/21 03:30:13;;;;;;;7.65;1.45;;;6.50;99.90;;;;;;5031033;28;20025;-77
2022/02/21 03:32:39;;;;;;;8.00;1.30;;;6.60;99.90;;;;;;5031178;28;20111;-77
2022/02/21 03:35:05;;;;;;;12.60;1.50;;;6.60;99.90;;;;;;5030019;28;20479;-79
2022/02/21 03:37:31;;;;;;;6.47;1.23;;;6.50;99.90;;;;;;5033521;28;20141;-77
2022/02/21 03:39:57;;;;;;;13.48;2.40;;;6.60;99.90;;;;;;5033606;28;20052;-78
2022/02/21 03:42:23;;;;;;;12.50;1.75;;;6.60;99.70;;;;;;5034333;28;20085;-76
2022/02/21 03:44:49;;;;;;;9.15;1.50;;;6.60;99.80;;;;;;5033841;28;20395;-77
2022/02/21 03:47:15;;;;;;;16.50;2.03;;;6.70;99.90;;;;;;5034266;28;20060;-78
2022/02/21 03:49:41;;;;;;;16.90;1.60;;;6.60;99.80;;;;;;5034107;28;20088;-78
2022/02/21 03:52:06;;;;;;;16.77;2.03;;;6.70;99.90;;;;;;5034735;28;20030;-77
2022/02/21 03:54:32;;;;;;;25.52;2.60;;;6.70;99.80;;;;;;5017077;28;20030;-78
2022/02/21 03:56:58;;;;;;;21.60;2.13;;;6.60;99.70;;;;;;5035664;28;20022;-77
2022/02/21 03:59:23;;;;;;;12.93;1.80;;;6.70;99.70;;;;;;5034277;28;20033;-74
2022/02/21 04:01:49;;;;;;;13.15;1.90;;;6.70;99.60;;;;;;5034005;28;20030;-76
2022/02/21 04:04:14;;;;;;;12.93;2.03;;;6.70;99.10;;;;;;5033500;28;20033;-76
2022/02/21 04:06:41;;;;;;;17.42;2.22;;;6.70;99.00;;;;;;5033254;28;20030;-75
2022/02/21 04:09:07;;;;;;;14.55;1.83;;;6.70;98.90;;;;;;5016355;28;20025;-74
2022/02/21 04:11:33;;;;;;;21.35;2.83;;;6.70;98.70;;;;;;5033398;28;20456;-78
2022/02/21 04:13:58;;;;;;;11.23;1.73;;;6.70;98.40;;;;;;5033624;28;20052;-77
2022/02/21 04:16:24;;;;;;;18.15;2.90;;;6.70;98.00;;;;;;5033431;28;20487;-76
2022/02/21 04:18:49;;;;;;;16.02;2.20;;;6.70;97.90;;;;;;5033398;28;20071;-77
2022/02/21 04:21:15;;;;;;;12.27;1.90;;;6.70;98.00;;;;;;5033943;28;20029;-76
2022/02/21 04:23:40;;;;;;;22.45;2.67;;;6.60;98.30;;;;;;5033709;28;20029;-77
2022/02/21 04:26:06;;;;;;;14.57;1.98;;;6.60;98.30;;;;;;5033498;28;20079;-76
2022/02/21 04:28:31;;;;;;;13.57;1.90;;;6.60;98.40;;;;;;5033725;28;20040;-76
2022/02/21 04:30:57;;;;;;;14.40;1.83;;;6.60;98.60;;;;;;5033006;28;20117;-77
2022/02/21 04:33:23;;;;;;;15.40;1.90;;;6.60;98.80;;;;;;5034284;28;20038;-77
2022/02/21 04:35:49;;;;;;;17.50;1.95;;;6.60;98.60;;;;;;5033237;28;20053;-76
2022/02/21 04:38:15;;;;;;;17.27;2.60;;;6.60;98.30;;;;;;5033199;28;20510;-77
2022/02/21 04:40:42;;;;;;;9.48;1.95;;;6.60;98.00;;;;;;5032903;28;20125;-77
2022/02/21 04:43:08;;;;;;;14.48;1.85;;;6.60;97.70;;;;;;5032734;28;20022;-77
2022/02/21 04:45:34;;;;;;;16.13;3.20;;;6.60;97.40;;;;;;5032684;28;20021;-76
2022/02/21 04:48:00;;;;;;;21.65;2.67;;;6.50;97.10;;;;;;5032513;28;20025;-76
2022/02/21 04:50:25;;;;;;;13.55;2.28;;;6.50;96.70;;;;;;5032600;28;20033;-76
2022/02/21 04:52:51;;;;;;;17.83;2.10;;;6.50;96.90;;;;;;5032276;28;20481;-77
2022/02/21 04:55:16;;;;;;;16.13;2.72;;;6.60;97.00;;;;;;5035756;28;20048;-76
2022/02/21 04:57:42;;;;;;;16.52;2.15;;;6.60;96.80;;;;;;5032537;28;20041;-77
2022/02/21 05:00:10;;;;;;;16.77;2.28;;;6.50;96.80;;;;;;5033377;28;20025;-77
2022/02/21 05:02:36;;;;;;;14.60;2.42;;;6.60;97.10;;;;;;5032437;28;20025;-76
2022/02/21 05:05:03;;;;;;;16.65;2.53;;;6.60;96.80;;;;;;5032197;28;20531;-76
2022/02/21 05:07:29;;;;;;;13.93;2.25;;;6.70;96.70;;;;;;5032317;28;20029;-75
2022/02/21 05:09:55;;;;;;;12.75;2.28;;;6.60;96.50;;;;;;5032333;28;20183;-77
2022/02/21 05:12:20;;;;;;;11.77;2.00;;;6.60;96.30;;;;;;5032643;28;20470;-76
2022/02/21 05:14:46;;;;;;;6.75;1.42;;;6.40;96.00;;;;;;5032162;28;20064;-76
2022/02/21 05:17:12;;;;;;;7.38;1.15;;;6.40;95.80;;;;;;5031941;28;20099;-76
2022/02/21 05:19:37;;;;;;;6.75;1.20;;;6.40;96.00;;;;;;5014541;28;20025;-76
2022/02/21 05:22:03;;;;;;;6.43;1.20;;;6.20;96.70;;;;;;5032061;28;20030;-78
2022/02/21 05:24:29;;;;;;;6.70;1.40;;;6.10;97.40;;;;;;5033165;28;20163;-76
2022/02/21 05:26:54;;;;;;;9.98;1.55;;;6.00;97.90;;;;;;5032132;28;20032;-77
2022/02/21 05:29:20;;;;;;;8.60;1.45;;;6.00;98.30;;;;;;5032146;28;20036;-76
2022/02/21 05:31:49;;;;;;;6.80;1.35;;;6.00;98.60;;;;;;5032456;28;20456;-78
2022/02/21 05:34:15;;;;;;;13.35;1.60;;;5.90;99.00;;;;;;5031944;28;20092;-77
2022/02/21 05:36:41;;;;;;;15.45;2.22;;;5.80;99.30;;;;;;5031694;28;20057;-75
2022/02/21 05:39:06;;;;;;;5.25;1.17;;;5.80;99.20;;;;;;5032480;28;20033;-77
2022/02/21 05:41:32;;;;;;;12.10;2.13;;;5.80;99.20;;;;;;5031858;28;20455;-77
2022/02/21 05:43:58;;;;;;;9.93;1.73;;;5.70;99.40;;;;;;5031785;28;20041;-77
2022/02/21 05:46:23;;;;;;;13.85;1.63;;;5.70;99.30;;;;;;5032028;28;20044;-78
2022/02/21 05:48:49;;;;;;;15.23;1.55;;;5.70;99.10;;;;;;5031692;28;20029;-76
2022/02/21 05:51:14;;;;;;;6.38;1.40;;;5.70;98.90;;;;;;5032358;28;20026;-77
2022/02/21 05:53:45;;;;;;;13.20;2.75;;;5.80;98.90;;;;;;5031805;28;20116;-76
2022/02/21 05:56:10;;;;;;;9.50;1.65;;;5.80;98.80;;;;;;5032830;28;20095;-77
2022/02/21 05:58:36;;;;;;;9.43;1.60;;;5.70;98.70;;;;;;5014879;28;20041;-78
2022/02/21 06:01:04;;;;;;;14.10;1.65;;;5.70;98.80;;;;;;5032612;28;20030;-77
2022/02/21 06:03:31;;;;;;;11.32;1.80;;;5.70;98.90;;;;;;5032816;28;20543;-77
2022/02/21 06:05:57;;;;;;;11.63;1.75;;;5.80;98.90;;;;;;5032729;28;20026;-78
2022/02/21 06:08:24;;;;;;;12.90;1.70;;;5.70;99.10;;;;;;5032790;28;20056;-77
2022/02/21 06:10:52;;;;;;;11.32;2.03;;;5.70;99.20;;;;;;5031329;28;20108;-78
2022/02/21 06:13:17;;;;;;;8.50;1.58;;;5.70;99.40;;;;;;5013866;28;20083;-78
2022/02/21 06:15:43;;;;;;;11.73;1.40;;;5.70;99.40;;;;;;5031812;28;20030;-77
2022/02/21 06:18:09;;;;;;;8.90;1.67;;;5.70;99.40;;;;;;5032091;28;20083;-77
2022/02/21 06:20:34;;;;;;;11.52;1.90;;;5.50;99.70;;;;;;5031816;28;20590;-77
2022/02/21 06:23:00;;;;;;;8.85;1.50;;;5.70;99.40;;;;;;5031273;28;20034;-78
2022/02/21 06:25:25;;;;;;;9.40;1.30;;;5.70;99.20;;;;;;5031835;28;20125;-76
2022/02/21 06:27:51;;;;;;;8.02;1.52;;;5.60;98.80;;;;;;5031503;28;20029;-78
2022/02/21 06:30:16;;;;;;;10.80;1.85;;;5.70;98.90;;;;;;5015940;28;20029;-77
2022/02/21 06:32:42;;;;;;;14.68;1.83;;;5.70;99.00;;;;;;5011580;28;20033;-77
2022/02/21 06:35:10;;;;;;;9.27;1.67;;;5.70;98.90;;;;;;4990569;28;20074;-77
2022/02/21 06:37:52;;;;;;;10.88;1.75;;;5.70;98.80;;;;;;4992116;28;20196;-77
2022/02/21 06:40:17;;;;;;;6.13;1.00;;;5.60;98.50;;;;;;4995964;28;20034;-77
2022/02/21 06:42:43;;;;;;;12.10;2.50;;;5.70;98.60;;;;;;4992333;28;20030;-76
2022/02/21 06:45:09;;;;;;;9.07;1.60;;;5.70;98.50;;;;;;4992572;28;20022;-77
2022/02/21 06:47:35;;;;;;;13.30;2.00;;;5.60;98.10;;;;;;4991481;28;20061;-79
2022/02/21 06:50:04;;;;;;;12.85;1.63;;;5.60;98.00;;;;;;4997164;28;20042;-79
2022/02/21 06:52:30;;;;;;;9.18;1.75;;;5.60;98.20;;;;;;4994210;28;20145;-81
2022/02/21 06:54:55;;;;;;;13.38;2.17;;;5.70;98.00;;;;;;4994461;28;20044;-80
2022/02/21 06:57:25;;;;;;;9.95;1.77;;;5.80;97.90;;;;;;4993968;28;20035;-79
2022/02/21 06:59:51;;;;;;;10.90;1.67;;;5.80;97.90;;;;;;4992546;28;20094;-80
2022/02/21 07:02:16;;;;;;;11.43;1.75;;;5.70;97.80;;;;;;4991958;28;20041;-78
2022/02/21 07:04:42;;;;;;;11.63;1.55;;;5.70;97.80;;;;;;4992179;28;20038;-80
2022/02/21 07:07:11;;;;;;;12.38;1.60;;;5.90;97.90;;;;;;4991185;28;20137;-80
2022/02/21 07:09:36;;;;;;;11.07;2.10;;;5.80;97.90;;;;;;4989666;28;20022;-79
2022/02/21 07:12:03;;;;;;;15.07;2.00;;;5.80;97.90;;;;;;4995495;28;20104;-77
2022/02/21 07:14:29;;;;;;;11.32;3.17;;;5.80;97.80;;;;;;4976178;28;20042;-81
2022/02/21 07:16:54;;;;;;;12.27;2.45;;;5.90;98.00;;;;;;4993959;28;20352;-76
2022/02/21 07:19:21;;;;;;;9.25;2.22;;;5.90;97.70;;;;;;4994687;28;20130;-77
2022/02/21 07:21:47;;;;;;;14.65;2.67;;;5.90;97.50;;;;;;4994716;28;20114;-78
2022/02/21 07:24:12;;;;;;;16.00;2.17;;;6.00;97.40;;;;;;4995103;28;20041;-76
2022/02/21 07:26:38;;;;;;;12.70;2.10;;;6.00;97.20;;;;;;4994656;28;20127;-76
2022/02/21 07:29:06;;;;;;;18.02;2.28;;;6.00;97.20;;;;;;4996754;28;20042;-76
2022/02/21 07:31:32;;;;;;;16.20;2.22;;;6.00;96.70;;;;;;4995648;28;20465;-76
2022/02/21 07:33:57;;;;;;;14.82;2.72;;;6.00;96.60;;;;;;4993843;28;20112;-79
2022/02/21 07:36:24;;;;;;;10.35;1.83;;;6.00;96.50;;;;;;4994312;28;20068;-77
2022/02/21 07:38:51;;;;;;;24.00;2.33;;;6.10;96.60;;;;;;4993680;28;20042;-79
2022/02/21 07:41:16;;;;;;;14.90;3.17;;;6.10;96.50;;;;;;4993093;28;20035;-76
2022/02/21 07:43:42;;;;;;;12.27;1.88;;;6.20;96.50;;;;;;4993924;28;20116;-74
2022/02/21 07:46:09;;;;;;;16.48;2.92;;;6.20;96.50;;;;;;4994093;28;20027;-74
2022/02/21 07:48:35;;;;;;;15.65;2.38;;;6.30;96.50;;;;;;4992595;28;20093;-74
2022/02/21 07:51:01;;;;;;;16.90;2.42;;;6.40;96.60;;;;;;4994744;28;20042;-75
2022/02/21 07:53:26;;;;;;;13.70;1.98;;;6.40;96.30;;;;;;4996567;28;20117;-81
2022/02/21 07:55:52;;;;;;;12.40;2.53;;;6.50;96.30;;;;;;4994609;28;20065;-78
2022/02/21 07:58:18;;;;;;;11.68;2.38;;;6.50;96.20;;;;;;4994049;28;20411;-78
2022/02/21 08:00:44;;;;;;;9.10;2.03;;;6.60;95.90;;;;;;4995705;28;20077;-87
2022/02/21 08:03:10;;;;;;;12.27;2.10;;;6.60;96.00;;;;;;4997836;28;20035;-80
2022/02/21 08:05:36;;;;;;;13.38;2.30;;;6.60;95.90;;;;;;4992931;28;20034;-77
2022/02/21 08:08:08;;;;;;;14.43;1.90;;;6.70;95.80;;;;;;4994305;28;20038;-78
2022/02/21 08:10:34;;;;;;;13.10;2.13;;;6.80;95.80;;;;;;4993976;28;20038;-78
2022/02/21 08:13:00;;;;;;;13.13;2.50;;;6.80;95.70;;;;;;4995339;28;20088;-85
2022/02/21 08:15:26;;;;;;;13.88;2.53;;;6.80;95.20;;;;;;4996231;28;20124;-84
2022/02/21 08:17:53;;;;;;;15.45;2.22;;;6.90;95.40;;;;;;4994453;28;20467;-83
2022/02/21 08:20:25;;;;;;;14.30;2.47;;;6.90;95.40;;;;;;4993936;28;20061;-76
2022/02/21 08:22:52;;;;;;;13.63;2.10;;;6.90;95.40;;;;;;4993438;28;20567;-84
2022/02/21 08:25:18;;;;;;;7.57;1.70;;;7.00;95.10;;;;;;4992637;28;20073;-82
2022/02/21 08:27:45;;;;;;;10.85;1.90;;;6.90;94.90;;;;;;4992896;28;20489;-82
2022/02/21 08:30:14;;;;;;;16.60;2.60;;;6.90;94.80;;;;;;4992963;28;20038;-79
2022/02/21 08:32:40;;;;;;;18.98;2.55;;;7.00;95.00;;;;;;4993483;28;20042;-77
2022/02/21 08:35:07;;;;;;;12.02;2.22;;;7.00;94.80;;;;;;4999025;28;20058;-85
2022/02/21 08:37:32;;;;;;;23.15;3.28;;;7.10;94.50;;;;;;4995721;28;20038;-78
2022/02/21 08:39:58;;;;;;;15.68;2.00;;;7.10;94.10;;;;;;5012869;28;20164;-77
2022/02/21 08:42:24;;;;;;;18.23;1.92;;;7.20;94.00;;;;;;5013295;28;20532;-80
2022/02/21 08:44:49;;;;;;;19.27;2.63;;;7.30;94.40;;;;;;5012182;28;20491;-77
2022/02/21 08:47:16;;;;;;;15.52;2.33;;;7.30;94.00;;;;;;5012327;28;20036;-77
2022/02/21 08:49:43;;;;;;;20.33;2.70;;;7.40;94.00;;;;;;5012706;28;20037;-84
2022/02/21 08:52:09;;;;;;;16.35;2.78;;;7.40;93.90;;;;;;5013306;28;20030;-91
2022/02/21 08:54:35;;;;;;;20.63;2.50;;;7.50;94.00;;;;;;4997384;28;20057;-85
2022/02/21 08:57:05;;;;;;;15.60;2.15;;;7.60;94.10;;;;;;4995975;28;20037;-77
2022/02/21 08:59:31;;;;;;;12.02;2.20;;;7.50;93.90;;;;;;5012121;28;20053;-83
2022/02/21 09:01:57;;;;;;;16.23;2.65;;;7.60;93.90;;;;;;5013580;28;20026;-84
2022/02/21 09:04:24;;;;;;;16.15;2.67;;;7.50;93.70;;;;;;5013394;28;20076;-76
2022/02/21 09:06:49;;;;;;;13.77;2.25;;;7.50;93.60;;;;;;5015449;28;20018;-82
2022/02/21 09:09:15;;;;;;;15.73;2.60;;;7.50;93.60;;;;;;5014242;28;20519;-83
2022/02/21 09:11:41;;;;;;;17.35;2.42;;;7.50;93.60;;;;;;4994638;28;20030;-82
2022/02/21 09:14:07;;;;;;;16.92;2.55;;;7.50;93.40;;;;;;5012187;28;20030;-77
2022/02/21 09:16:33;;;;;;;12.27;1.90;;;7.50;93.50;;;;;;5012631;28;20026;-80
2022/02/21 09:18:59;;;;;;;15.25;2.90;;;7.60;93.60;;;;;;5012836;28;20041;-80
2022/02/21 09:21:24;;;;;;;12.95;2.30;;;7.60;93.50;;;;;;5013536;28;20026;-76
2022/02/21 09:23:50;;;;;;;24.17;2.42;;;7.60;93.50;;;;;;5012791;28;20368;-77
2022/02/21 09:26:17;;;;;;;12.68;2.42;;;7.60;93.50;;;;;;4996441;28;20124;-81
2022/02/21 09:28:43;;;;;;;11.65;2.70;;;7.70;93.40;;;;;;5013332;28;20049;-82
2022/02/21 09:31:08;;;;;;;16.58;2.50;;;7.70;93.40;;;;;;4997014;28;20057;-81
2022/02/21 09:33:34;;;;;;;22.88;2.03;;;7.60;93.00;;;;;;5020153;28;20475;-84
2022/02/21 09:36:00;;;;;;;16.45;3.08;;;7.60;93.00;;;;;;5007376;28;20058;-80
2022/02/21 09:38:25;;;;;;;9.25;2.22;;;7.60;92.90;;;;;;5000827;28;20049;-84
2022/02/21 09:40:56;;;;;;;13.90;2.53;;;7.70;92.90;;;;;;5017824;28;20037;-85
2022/02/21 09:43:26;;;;;;;11.02;2.35;;;7.60;92.90;;;;;;4998241;28;20030;-80
2022/02/21 09:46:04;;;;;;;21.33;4.72;;;7.80;92.60;;;;;;5004562;28;20033;-86
2022/02/21 09:48:30;;;;;;;;;;;7.80;92.60;;;;;;5020863;28;20029;-86
2022/02/21 09:51:00;;;;;;;16.83;2.42;;;8.00;92.10;;;;;;5018570;28;19913;-90
2022/02/21 09:53:28;;;;;;;11.18;2.17;;;8.00;92.20;;;;;;5015603;28;20099;-85
2022/02/21 09:55:54;;;;;;;17.45;2.33;;;8.10;91.80;;;;;;5013927;28;20038;-84
2022/02/21 09:58:20;;;;;;;14.15;2.20;;;8.20;92.00;;;;;;5012782;28;20044;-86
2022/02/21 10:00:45;;;;;;;13.25;2.95;;;8.50;91.80;;;;;;5014775;28;20119;-89
2022/02/21 10:03:11;;;;;;;10.75;2.40;;;8.70;91.20;;;;;;5015606;28;20088;-86
2022/02/21 10:05:37;;;;;;;14.98;2.78;;;8.50;91.10;;;;;;5016287;28;20034;-93
2022/02/21 10:08:07;;;;;;;13.93;2.40;;;8.50;91.20;;;;;;5013157;28;20333;-80
2022/02/21 10:10:37;;;;;;;9.02;2.25;;;8.50;91.00;;;;;;5010826;28;20037;-79
2022/02/21 10:13:03;;;;;;;11.13;2.40;;;8.50;90.80;;;;;;5010803;28;20033;-79
2022/02/21 10:15:31;;;;;;;10.95;1.98;;;8.40;90.60;;;;;;5011977;28;20088;-82
2022/02/21 10:18:17;;;;;;;17.15;2.58;;;8.60;90.80;;;;;;5010894;28;20057;-83
2022/02/21 10:20:58;;;;;;;15.68;1.95;;;8.60;90.80;;;;;;5011408;28;20109;-84
2022/02/21 10:23:25;;;;;;;15.98;2.92;;;8.50;90.30;;;;;;5011086;28;20088;-82
2022/02/21 10:25:59;;;;;;;20.67;2.85;;;8.60;91.00;;;;;;5010882;28;20474;-82
2022/02/21 10:28:33;;;;;;;18.48;4.15;;;8.40;90.50;;;;;;5011039;28;20121;-83
2022/02/21 10:31:12;;;;;;;12.18;2.35;;;8.40;90.40;;;;;;5011128;28;20102;-85
2022/02/21 10:33:39;;;;;;;16.15;2.50;;;8.30;90.20;;;;;;5013075;28;20064;-87
2022/02/21 10:36:30;;;;;;;12.30;2.88;;;8.20;90.60;;;;;;5012679;28;20121;-81
2022/02/21 10:38:56;;;;;;;29.00;5.53;;;8.10;90.40;;;;;;5012649;28;20058;-86
2022/02/21 10:41:22;;;;;;;12.38;2.70;;;8.10;90.70;;;;;;5011772;28;20479;-79
2022/02/21 10:43:49;;;;;;;12.57;2.33;;;8.10;90.70;;;;;;4993154;28;20088;-80
2022/02/21 10:46:14;;;;;;;15.30;2.80;;;8.00;90.70;;;;;;4994931;28;20034;-81
2022/02/21 10:48:44;;;;;;;21.20;2.80;;;8.00;90.60;;;;;;5015018;28;20513;-80
2022/02/21 10:51:11;;;;;;;12.80;2.25;;;7.80;90.50;;;;;;4998108;28;20108;-80
2022/02/21 10:53:45;;;;;;;14.45;2.42;;;7.80;90.70;;;;;;5014446;28;20037;-79
2022/02/21 10:56:12;;;;;;;10.50;2.70;;;7.90;91.00;;;;;;5014862;28;20111;-79
2022/02/21 10:58:38;;;;;;;20.98;2.92;;;7.80;90.70;;;;;;5014295;28;20038;-78
2022/02/21 11:01:08;;;;;;;15.75;3.25;;;7.90;90.80;;;;;;5013794;28;20164;-77
2022/02/21 11:03:34;;;;;;;13.90;2.80;;;7.80;90.70;;;;;;4996844;28;20030;-76
2022/02/21 11:06:01;;;;;;;10.52;3.05;;;7.80;90.90;;;;;;4998198;28;20226;-80
2022/02/21 11:08:29;;;;;;;16.92;3.17;;;7.80;90.90;;;;;;5014421;28;20048;-79
2022/02/21 11:10:59;;;;;;;;;;;7.90;91.00;;;;;;5014499;28;20026;-77
2022/02/21 11:13:28;;;;;;;17.15;3.47;;;7.90;90.90;;;;;;5014339;28;19941;-79
2022/02/21 11:15:54;;;;;;;15.02;2.30;;;7.80;90.80;;;;;;5014393;28;20026;-78
2022/02/21 11:18:20;;;;;;;18.60;3.00;;;7.90;91.00;;;;;;4997173;28;20060;-77
2022/02/21 11:20:47;;;;;;;17.27;2.65;;;8.00;90.90;;;;;;5014366;28;20109;-78
2022/02/21 11:23:13;;;;;;;9.50;1.63;;;8.00;90.70;;;;;;5013734;28;20048;-76
2022/02/21 11:25:57;;;;;;;19.20;2.08;;;7.90;90.50;;;;;;5014058;28;20480;-76
2022/02/21 11:28:36;;;;;;;9.20;2.25;;;8.00;90.60;;;;;;5013789;28;20030;-77
2022/02/21 11:31:06;;;;;;;18.27;3.00;;;8.00;90.60;;;;;;5013899;28;20456;-77
2022/02/21 11:33:32;;;;;;;14.45;2.63;;;8.10;90.90;;;;;;5013675;28;20116;-77
2022/02/21 11:36:08;;;;;;;15.52;3.08;;;8.10;91.20;;;;;;4993477;28;20184;-77
2022/02/21 11:38:36;;;;;;;10.48;2.45;;;8.10;91.90;;;;;;4993139;28;20097;-82
2022/02/21 11:41:10;;;;;;;14.75;1.85;;;8.10;92.10;;;;;;4994738;28;20037;-82
2022/02/21 11:43:43;;;;;;;11.60;2.53;;;8.10;92.20;;;;;;4994685;28;20652;-84
2022/02/21 11:46:20;;;;;;;11.05;1.90;;;8.00;92.40;;;;;;4994803;28;20027;-81
2022/02/21 11:48:59;;;;;;;9.18;2.00;;;8.00;92.50;;;;;;4994893;28;20117;-82
2022/02/21 11:51:41;;;;;;;6.03;1.52;;;7.90;93.00;;;;;;4994829;28;20158;-81
2022/02/21 11:54:09;;;;;;;10.75;1.58;;;7.80;93.20;;;;;;4994495;28;20052;-78
2022/02/21 11:56:53;;;;;;;11.20;2.00;;;7.70;93.70;;;;;;4993804;28;20030;-77
2022/02/21 11:59:21;;;;;;;7.72;1.75;;;7.60;94.60;;;;;;4993015;28;20130;-81
2022/02/21 12:02:01;;;;;;;6.63;1.83;;;7.40;95.20;;;;;;4993830;28;20050;-80
2022/02/21 12:04:28;;;;;;;10.50;2.05;;;7.30;96.00;;;;;;4994563;28;20041;-80
2022/02/21 12:06:56;;;;;;;10.45;1.73;;;7.20;96.30;;;;;;4995107;28;20125;-79
2022/02/21 12:09:22;;;;;;;2.95;1.05;;;7.10;96.70;;;;;;4994891;28;20046;-81
2022/02/21 12:11:48;;;;;;;9.13;1.60;;;7.00;97.20;;;;;;4994855;28;20474;-80
2022/02/21 12:14:16;;;;;;;4.50;1.58;;;7.10;97.30;;;;;;4996665;28;20104;-89
2022/02/21 12:16:59;;;;;;;7.80;1.20;;;7.00;97.80;;;;;;4996012;28;20034;-82
2022/02/21 12:19:33;;;;;;;5.72;1.27;;;7.00;97.80;;;;;;4993914;28;20072;-80
2022/02/21 12:22:13;;;;;;;3.83;0.95;;;7.00;97.70;;;;;;4994966;28;20110;-83
2022/02/21 12:25:06;;;;;;;3.53;1.27;;;6.90;97.90;;;;;;4997053;28;20037;-82
2022/02/21 12:27:32;;;;;;;2.72;1.02;;;6.80;97.90;;;;;;4995048;28;20105;-80
2022/02/21 12:29:58;;;;;;;4.80;0.90;;;6.80;97.90;;;;;;4996167;28;20100;-83
2022/02/21 12:32:27;;;;;;;4.68;1.20;;;6.80;98.10;;;;;;4994015;28;20046;-78
2022/02/21 12:34:53;;;;;;;7.25;1.70;;;6.80;98.10;;;;;;4996457;28;20454;-80
2022/02/21 12:37:19;;;;;;;3.80;1.00;;;6.70;98.20;;;;;;5012920;28;20368;-78
2022/02/21 12:39:48;;;;;;;8.50;1.70;;;6.80;98.20;;;;;;5013668;28;20427;-79
2022/02/21 12:42:24;;;;;;;2.95;0.73;;;6.70;98.30;;;;;;5013291;28;20080;-78
2022/02/21 12:44:50;;;;;;;4.57;1.13;;;6.70;98.30;;;;;;5012794;28;20032;-79
2022/02/21 12:47:16;;;;;;;4.22;1.08;;;6.70;98.50;;;;;;5013334;28;20414;-81
2022/02/21 12:49:51;;;;;;;3.60;1.10;;;6.60;98.60;;;;;;5014412;28;20497;-82
2022/02/21 12:52:17;;;;;;;2.88;0.93;;;6.50;98.70;;;;;;5014901;28;20521;-86
2022/02/21 12:54:57;;;;;;;2.17;0.73;;;6.60;98.60;;;;;;5014375;28;20503;-81
2022/02/21 12:57:30;;;;;;;2.78;0.85;;;6.60;98.90;;;;;;5016126;28;20048;-91
2022/02/21 12:59:56;;;;;;;4.38;0.95;;;6.70;98.60;;;;;;4998092;28;20052;-84